Time;durP1;ratioP1;P1;durP2;ratioP2;P2;SDS_P1;SDS_P2;PMS_P1;PMS_P2;Temp;Humidity;BMP_temperature;BMP_pressure;BME280_temperature;BME280_humidity;BME280_pressure;Samples;Min_cycle;Max_cycle;Signal;HPM_P1;HPM_P2
2021/10/22 00:09:00;;;;;;;3.40;0.80;;;16.10;51.90;;;;;;20794300;28;80103;-66
2021/10/22 00:19:03;;;;;;;3.90;1.10;;;16.10;52.80;;;;;;20804031;28;80510;-66
2021/10/22 00:29:06;;;;;;;2.05;0.70;;;15.90;53.80;;;;;;20808187;28;80619;-67
2021/10/22 00:39:09;;;;;;;3.50;0.93;;;15.90;54.60;;;;;;20806844;28;80722;-65
2021/10/22 00:49:13;;;;;;;2.45;0.70;;;15.80;55.00;;;;;;20804837;28;80789;-64
2021/10/22 00:59:15;;;;;;;6.67;1.00;;;15.70;55.40;;;;;;20806369;28;81744;-66
2021/10/22 01:09:18;;;;;;;;;;;15.50;55.80;;;;;;20804359;28;80658;-65
2021/10/22 01:19:20;;;;;;;6.05;1.02;;;15.30;56.10;;;;;;20826112;28;80839;-65
2021/10/22 01:29:23;;;;;;;3.70;1.40;;;15.10;56.70;;;;;;20802438;28;80003;-66
2021/10/22 01:39:25;;;;;;;7.00;0.97;;;15.00;57.30;;;;;;20801579;28;80747;-65
2021/10/22 01:49:28;;;;;;;10.05;1.17;;;15.00;57.40;;;;;;20802307;28;81021;-65
2021/10/22 01:59:30;;;;;;;4.90;1.33;;;15.20;57.40;;;;;;20801941;28;80750;-68
2021/10/22 02:09:34;;;;;;;;;;;15.30;57.50;;;;;;20801048;28;81703;-66
2021/10/22 02:19:36;;;;;;;5.05;1.20;;;15.40;57.50;;;;;;20822606;28;79703;-65
2021/10/22 02:29:40;;;;;;;6.65;1.83;;;15.40;57.40;;;;;;20802073;28;79935;-67
2021/10/22 02:39:43;;;;;;;5.33;1.73;;;15.20;57.90;;;;;;20799039;28;81104;-66
2021/10/22 02:49:47;;;;;;;4.95;1.17;;;15.10;58.20;;;;;;20798985;28;80133;-66
2021/10/22 02:59:51;;;;;;;13.75;1.45;;;15.30;57.70;;;;;;20798351;28;80739;-66
2021/10/22 03:09:55;;;;;;;4.88;0.90;;;15.30;57.50;;;;;;20796431;28;80730;-66
2021/10/22 03:19:59;;;;;;;4.55;1.85;;;15.20;57.70;;;;;;20797581;28;80648;-65
2021/10/22 03:30:03;;;;;;;7.13;1.60;;;15.00;58.00;;;;;;20797219;28;80769;-65
2021/10/22 03:40:06;;;;;;;5.85;1.08;;;14.90;58.30;;;;;;20796523;28;80748;-65
2021/10/22 03:50:10;;;;;;;;;;;14.70;59.20;;;;;;20802043;28;80747;-65
2021/10/22 04:00:15;;;;;;;7.53;1.80;;;14.70;58.90;;;;;;20832104;28;80709;-65
2021/10/22 04:10:19;;;;;;;9.45;1.80;;;14.70;58.00;;;;;;20854258;28;80310;-66
2021/10/22 04:20:23;;;;;;;3.72;1.70;;;14.70;57.90;;;;;;20890475;27;80111;-66
2021/10/22 04:30:26;;;;;;;7.15;1.45;;;14.60;57.50;;;;;;20880060;28;80268;-66
2021/10/22 04:40:31;;;;;;;7.28;2.45;;;14.60;57.80;;;;;;20887639;27;80547;-64
2021/10/22 04:50:40;;;;;;;6.25;2.00;;;14.50;57.40;;;;;;20890198;27;80831;-67
2021/10/22 05:00:42;;;;;;;13.60;2.22;;;14.60;56.20;;;;;;20886940;27;82073;-64
2021/10/22 05:10:44;;;;;;;3.33;0.98;;;14.70;56.10;;;;;;20867881;27;81790;-64
2021/10/22 05:20:46;;;;;;;5.63;1.87;;;14.60;55.40;;;;;;20875133;28;80663;-64
2021/10/22 05:30:48;;;;;;;16.50;4.55;;;14.50;55.10;;;;;;20875402;27;81284;-65
2021/10/22 05:40:52;;;;;;;6.43;1.70;;;14.40;54.70;;;;;;20872703;28;81908;-65
2021/10/22 05:50:55;;;;;;;6.13;1.20;;;14.40;54.20;;;;;;20872849;28;80810;-66
2021/10/22 06:00:56;;;;;;;5.13;1.58;;;14.40;53.70;;;;;;20874680;27;80783;-64
2021/10/22 06:10:59;;;;;;;3.55;1.00;;;14.40;53.10;;;;;;20871239;27;81238;-64
2021/10/22 06:21:05;;;;;;;8.37;1.97;;;14.40;53.10;;;;;;20873250;27;82077;-63
2021/10/22 06:31:06;;;;;;;4.63;1.35;;;14.30;53.30;;;;;;20871643;28;82215;-63
2021/10/22 06:41:08;;;;;;;3.42;0.80;;;14.20;52.40;;;;;;20874342;28;81331;-62
2021/10/22 06:51:11;;;;;;;6.72;1.30;;;14.30;51.50;;;;;;20872839;28;81979;-64
2021/10/22 07:01:13;;;;;;;5.43;1.30;;;14.30;51.30;;;;;;20871636;28;81796;-63
2021/10/22 07:11:16;;;;;;;4.93;0.98;;;14.40;50.60;;;;;;20873203;27;81003;-61
2021/10/22 07:21:19;;;;;;;7.38;0.88;;;14.40;50.50;;;;;;20872279;27;81806;-62
2021/10/22 07:31:20;;;;;;;5.20;0.90;;;14.40;50.00;;;;;;20878035;28;80831;-64
2021/10/22 07:41:23;;;;;;;5.37;1.10;;;14.50;49.50;;;;;;20886075;27;80946;-62
2021/10/22 07:51:25;;;;;;;4.35;0.75;;;14.90;49.20;;;;;;20884881;27;81295;-64
2021/10/22 08:01:27;;;;;;;4.47;0.87;;;15.30;47.50;;;;;;20883727;27;81906;-63
2021/10/22 08:11:29;;;;;;;7.45;0.75;;;15.50;46.60;;;;;;20879135;27;81215;-65
2021/10/22 08:31:40;;;;;;;9.27;0.88;;;16.00;45.20;;;;;;20880611;27;81758;-63
2021/10/22 08:41:44;;;;;;;8.97;1.97;;;16.20;45.00;;;;;;20873665;27;81366;-64
2021/10/22 08:51:46;;;;;;;6.97;0.68;;;16.10;44.90;;;;;;20879750;27;81802;-62
2021/10/22 09:02:13;;;;;;;1.97;0.30;;;16.40;44.80;;;;;;20872992;27;81529;-63
2021/10/22 09:12:14;;;;;;;4.93;0.50;;;16.70;43.80;;;;;;20874361;28;81726;-63
2021/10/22 09:22:30;;;;;;;3.47;0.60;;;16.90;43.60;;;;;;20878532;27;81625;-63
2021/10/22 09:32:33;;;;;;;5.72;0.93;;;17.50;42.60;;;;;;20875630;28;81832;-63
2021/10/22 09:42:47;;;;;;;6.93;0.73;;;17.70;42.10;;;;;;20876982;28;81456;-62
2021/10/22 09:52:49;;;;;;;5.38;1.02;;;18.50;41.00;;;;;;20877072;27;81572;-62
2021/10/22 10:02:51;;;;;;;3.17;0.50;;;23.20;32.80;;;;;;20877352;27;81519;-63
2021/10/22 10:12:53;;;;;;;1.80;0.90;;;25.60;29.00;;;;;;20876717;28;81995;-63
2021/10/22 10:22:56;;;;;;;6.43;1.00;;;28.10;26.30;;;;;;20874404;28;81439;-62
2021/10/22 10:32:59;;;;;;;1.95;0.40;;;30.90;23.30;;;;;;20872204;28;81888;-62
2021/10/22 10:43:05;;;;;;;5.45;0.95;;;32.60;21.40;;;;;;20861080;27;81892;-63
2021/10/22 10:53:10;;;;;;;2.22;0.45;;;35.50;18.90;;;;;;20867817;27;81570;-64
2021/10/22 11:03:20;;;;;;;4.72;0.60;;;36.20;18.10;;;;;;20864762;28;81781;-64
2021/10/22 11:13:23;;;;;;;5.00;1.02;;;37.70;17.20;;;;;;20865646;27;81213;-64
2021/10/22 11:23:25;;;;;;;3.30;0.40;;;38.50;16.30;;;;;;20866030;28;81092;-63
2021/10/22 11:33:27;;;;;;;1.58;0.80;;;39.70;15.30;;;;;;20864139;27;81188;-64
2021/10/22 11:43:29;;;;;;;5.35;0.35;;;36.90;17.10;;;;;;20865807;27;81551;-64
2021/10/22 11:53:31;;;;;;;3.90;0.47;;;32.80;20.30;;;;;;20864144;27;81162;-65
2021/10/22 12:03:42;;;;;;;4.03;0.40;;;30.90;22.00;;;;;;20866262;27;82099;-65
2021/10/22 12:13:46;;;;;;;2.38;0.50;;;31.80;20.80;;;;;;20873654;27;81570;-65
2021/10/22 12:24:00;;;;;;;3.58;0.88;;;35.40;18.20;;;;;;20884256;27;80995;-65
2021/10/22 12:34:12;;;;;;;4.10;0.25;;;34.20;18.30;;;;;;20878971;27;80712;-65
2021/10/22 12:44:15;;;;;;;0.50;0.20;;;33.60;19.20;;;;;;20878996;27;81564;-64
2021/10/22 12:54:17;;;;;;;2.17;0.17;;;31.50;21.30;;;;;;20881685;27;80739;-66
2021/10/22 13:04:25;;;;;;;2.47;0.45;;;35.90;18.00;;;;;;20891251;27;80754;-64
2021/10/22 13:24:35;;;;;;;0.75;0.28;;;36.70;16.90;;;;;;20882399;27;80747;-67
2021/10/22 13:34:38;;;;;;;0.73;0.20;;;31.20;20.20;;;;;;20885534;28;80693;-64
2021/10/22 13:44:42;;;;;;;1.67;0.10;;;32.10;20.30;;;;;;20878775;27;80952;-65
2021/10/22 13:54:44;;;;;;;0.88;0.20;;;36.00;17.90;;;;;;20807135;28;81911;-66
2021/10/22 14:04:46;;;;;;;2.63;0.30;;;37.80;16.20;;;;;;20805687;28;80590;-66
2021/10/22 14:14:55;;;;;;;4.55;0.30;;;35.10;18.00;;;;;;20805748;28;80779;-67
2021/10/22 14:35:18;;;;;;;2.55;0.28;;;30.70;21.50;;;;;;20810579;28;80786;-68
2021/10/22 14:45:24;;;;;;;0.85;0.20;;;35.90;17.50;;;;;;20807068;28;80877;-67
2021/10/22 15:05:30;;;;;;;0.60;0.20;;;37.00;16.40;;;;;;20801207;28;80753;-67
2021/10/22 15:15:33;;;;;;;2.30;0.90;;;33.20;19.10;;;;;;20799642;28;81900;-69
2021/10/22 15:25:37;;;;;;;1.83;0.10;;;30.30;21.50;;;;;;20791739;28;80535;-69
2021/10/22 15:35:40;;;;;;;2.05;0.20;;;28.00;23.30;;;;;;20787574;28;80827;-67
2021/10/22 15:45:42;;;;;;;3.28;0.10;;;25.30;26.20;;;;;;20796757;28;80452;-66
2021/10/22 15:55:44;;;;;;;0.75;0.10;;;24.20;27.10;;;;;;20813485;28;80793;-71
2021/10/22 16:05:54;;;;;;;1.38;0.20;;;23.40;27.90;;;;;;20811472;28;80894;-68
2021/10/22 16:16:16;;;;;;;0.93;0.13;;;22.80;29.00;;;;;;20812948;28;80268;-68
2021/10/22 16:26:19;;;;;;;0.35;0.10;;;22.40;30.00;;;;;;20811978;28;81796;-66
2021/10/22 16:36:21;;;;;;;0.55;0.15;;;22.10;30.20;;;;;;20811642;28;81892;-63
2021/10/22 16:46:24;;;;;;;3.17;0.55;;;21.70;30.90;;;;;;20811903;28;80749;-63
2021/10/22 16:56:25;;;;;;;2.20;0.60;;;21.40;30.40;;;;;;20809606;28;81856;-67
2021/10/22 17:06:28;;;;;;;0.88;0.20;;;21.00;30.80;;;;;;20808258;28;80849;-64
2021/10/22 17:16:31;;;;;;;0.68;0.20;;;20.70;31.40;;;;;;20828737;28;79947;-66
2021/10/22 17:26:36;;;;;;;1.83;0.20;;;20.50;31.80;;;;;;20875814;28;81818;-68
2021/10/22 17:36:38;;;;;;;2.42;0.13;;;20.30;32.80;;;;;;20807885;27;81611;-69
2021/10/22 17:46:44;;;;;;;2.83;0.20;;;20.00;33.80;;;;;;20823330;27;80763;-70
2021/10/22 17:56:46;;;;;;;1.48;0.20;;;19.80;34.70;;;;;;20862191;28;80601;-69
2021/10/22 18:06:48;;;;;;;1.53;0.20;;;19.60;35.00;;;;;;20802311;28;81017;-70
2021/10/22 18:16:49;;;;;;;3.03;0.43;;;19.40;35.50;;;;;;20801031;28;81823;-68
2021/10/22 18:26:51;;;;;;;1.23;0.20;;;19.20;36.10;;;;;;20799791;28;81998;-70
2021/10/22 18:36:55;;;;;;;0.70;0.10;;;19.10;36.30;;;;;;20800210;28;80823;-71
2021/10/22 18:46:59;;;;;;;2.10;0.30;;;18.90;36.80;;;;;;20801592;28;80790;-71
2021/10/22 18:57:10;;;;;;;1.88;0.30;;;18.70;37.80;;;;;;20806542;28;80943;-69
2021/10/22 19:07:13;;;;;;;2.72;1.13;;;18.50;38.40;;;;;;20795823;28;80670;-73
2021/10/22 19:17:15;;;;;;;3.30;0.30;;;18.40;39.30;;;;;;20795516;28;81260;-74
2021/10/22 19:27:17;;;;;;;1.07;0.20;;;18.10;40.50;;;;;;20794990;28;80692;-74
2021/10/22 19:37:19;;;;;;;1.70;0.20;;;17.90;41.30;;;;;;20877653;27;80789;-75
2021/10/22 19:47:24;;;;;;;;;;;17.60;42.00;;;;;;20883207;28;82069;-75
2021/10/22 19:57:26;;;;;;;2.05;0.43;;;17.40;42.50;;;;;;20896331;28;79208;-75
2021/10/22 20:07:29;;;;;;;0.77;0.20;;;17.20;42.80;;;;;;20824025;28;79969;-74
2021/10/22 20:17:31;;;;;;;0.90;0.30;;;17.00;43.20;;;;;;20799552;28;79868;-73
2021/10/22 20:27:34;;;;;;;;;;;16.80;43.70;;;;;;20844662;28;81845;-73
2021/10/22 20:37:36;;;;;;;10.23;0.88;;;16.60;43.80;;;;;;20908008;28;81807;-72
2021/10/22 20:47:39;;;;;;;1.13;0.32;;;16.40;44.20;;;;;;20845216;28;79833;-74
2021/10/22 20:57:41;;;;;;;1.17;0.45;;;16.30;44.40;;;;;;20812122;28;81888;-71
2021/10/22 21:07:44;;;;;;;2.63;0.28;;;16.10;44.60;;;;;;20809384;28;81896;-72
2021/10/22 21:17:46;;;;;;;2.33;0.25;;;15.90;45.10;;;;;;20816987;28;80876;-73
2021/10/22 21:27:48;;;;;;;0.67;0.10;;;15.80;45.30;;;;;;20806510;28;80037;-71
2021/10/22 21:37:53;;;;;;;3.53;0.60;;;15.60;45.60;;;;;;20806301;28;79996;-71
2021/10/22 21:47:55;;;;;;;1.98;0.30;;;15.60;46.00;;;;;;20806230;28;80073;-71
2021/10/22 21:57:58;;;;;;;2.27;0.30;;;15.50;46.30;;;;;;20824902;28;80986;-71
2021/10/22 22:08:01;;;;;;;0.77;0.20;;;15.40;46.60;;;;;;20877137;28;82025;-71
2021/10/22 22:18:05;;;;;;;2.87;0.20;;;15.20;47.10;;;;;;20888830;28;80064;-71
2021/10/22 22:28:10;;;;;;;1.52;0.20;;;15.10;47.60;;;;;;20868593;28;80491;-70
2021/10/22 22:38:12;;;;;;;1.73;0.30;;;15.00;47.90;;;;;;20862874;28;80906;-71
2021/10/22 22:48:15;;;;;;;1.37;0.13;;;14.90;48.40;;;;;;20801768;28;82262;-71
2021/10/22 22:58:18;;;;;;;1.80;0.10;;;14.80;48.70;;;;;;20798653;28;80837;-70
2021/10/22 23:08:20;;;;;;;0.95;0.20;;;14.70;48.90;;;;;;20799469;28;80973;-72
2021/10/22 23:18:22;;;;;;;1.38;0.20;;;14.60;49.60;;;;;;20797460;28;82092;-71
2021/10/22 23:28:24;;;;;;;2.40;0.20;;;14.40;50.00;;;;;;20796917;28;80041;-70
2021/10/22 23:38:26;;;;;;;1.40;0.15;;;14.40;50.20;;;;;;20796476;28;81838;-72
2021/10/22 23:48:28;;;;;;;1.17;0.30;;;14.30;50.50;;;;;;20838650;28;80829;-73
2021/10/22 23:58:30;;;;;;;1.37;0.20;;;14.20;50.90;;;;;;20808952;28;80745;-71
